CheckWX is a tool to help pilots better visualize weather data.  It is not intended as a substitute for an official pre-flight weather briefing.

03:17:03 UTC

LEMG METAR
Málaga Airport
Málaga, Spain
Current

17 mins ago

LEMG 070300Z 14001KT 9999 FEW014 BKN032 15/13 Q1024 NOSIG
Observed
Apr-7 @ 03:00 UTC
Wind
  • 140° at 1 KTS
Visibility
10,000+ meters
Flight Rules
VFR
Cloud Levels
  • Few at 1,400' AGL
  • Broken at 3,200' AGL
Temperature
15°C / 59°F
Dewpoint
13°C / 55°F
Humidity
88%
Altimeter
30.24" Hg
Pressure
1023.92 hPa
Previous

47 mins ago

LEMG 070230Z 13002KT 9999 FEW014 BKN032 15/14 Q1024 NOSIG
Observed
Apr-7 @ 02:30 UTC
Wind
  • 130° at 2 KTS
Visibility
10,000+ meters
Flight Rules
VFR
Cloud Levels
  • Few at 1,400' AGL
  • Broken at 3,200' AGL
Temperature
15°C / 59°F
Dewpoint
14°C / 57°F
Humidity
94%
Altimeter
30.24" Hg
Pressure
1023.92 hPa
Previous

1 hour ago

LEMG 070200Z VRB02KT 9999 FEW014 BKN032 15/13 Q1024 NOSIG
Observed
Apr-7 @ 02:00 UTC
Wind
  • Variable at 2 KTS
Visibility
10,000+ meters
Flight Rules
VFR
Cloud Levels
  • Few at 1,400' AGL
  • Broken at 3,200' AGL
Temperature
15°C / 59°F
Dewpoint
13°C / 55°F
Humidity
88%
Altimeter
30.24" Hg
Pressure
1023.92 hPa